Jody Ann — WDJ5593 — position and weather

sailwx.info

Track history (hours):
 
Tides and Currents Weather Stations Pressure Air Temp Water Temp Dewpoint Dewpoint Depression Visibility Wind Speed Wind Dir Waves Ship Positions

Jody Ann

Owner: Dean Equipment Inc., Harvey, LA. More information available from US FCC via Universal Licensing System and Coast Guard Vessel Documentation Center.

Last reported at 2017-Sep-21 21:28 UTC. Time now 2017-Dec-11 01:56 UTC.
Position N 29°34' W 090°33'.
Warning: this ship's position is months out of date.

Length 17 m; draft 2.3 m.

Type: Towing. MMSI: 367789370.

Date/timePositionNaut miles runAvg speedWind from/ knotsBaromVisibWave heightAir tempDewpointWater temp
2017-Sep-21 21:28N 29°34' W 090°33'2 5.2
2017-Sep-21 21:00N 29°35' W 090°36'2 4.9
2017-Sep-21 20:30N 29°35' W 090°39'2 5.0
2017-Sep-21 20:00N 29°36' W 090°41'1 2.8
2017-Sep-21 19:30N 29°36' W 090°43'2 3.4
2017-Sep-21 19:00N 29°34' W 090°43'2 3.6
2017-Sep-21 18:30N 29°33' W 090°45'0 0.1
2017-Sep-21 18:00N 29°33' W 090°45'1 1.5
2017-Sep-21 17:30N 29°33' W 090°46'3 5.1
2017-Sep-21 17:00N 29°32' W 090°48'3 5.5
2017-Sep-21 16:30N 29°32' W 090°52'3 5.1
2017-Sep-21 15:50N 29°33' W 090°55'3 5.4
2017-Sep-21 15:12N 29°36' W 090°58'57 1.4
2017-Sep-19 23:34N 29°49' W 092°02'0 6.4
2017-Sep-19 23:30N 29°49' W 092°02'3 6.5
2017-Sep-19 23:00N 29°48' W 092°06'3 6.5
2017-Sep-19 22:31N 29°47' W 092°09'3 5.9
2017-Sep-19 22:01N 29°47' W 092°13'4 6.6
2017-Sep-19 21:23N 29°49' W 092°17'4 6.3
2017-Sep-19 20:49N 29°51' W 092°21'41 6.0
2017-Sep-19 14:04N 29°56' W 093°07'1 6.0
2017-Sep-19 13:50N 29°56' W 093°09'2 5.8
2017-Sep-19 13:31N 29°57' W 093°11'3 6.2
2017-Sep-19 13:00N 29°60' W 093°13'3 5.8
2017-Sep-19 12:31N 30°02' W 093°15'3 5.9
2017-Sep-19 12:01N 30°05' W 093°17'2 3.5
2017-Sep-19 11:30N 30°06' W 093°18'1 1.4
2017-Sep-19 11:00N 30°06' W 093°19'0 0.0
2017-Sep-19 10:31N 30°06' W 093°19'0 0.0
2017-Sep-19 10:00N 30°06' W 093°19'0 0.0
2017-Sep-19 09:30N 30°06' W 093°19'0 0.0
2017-Sep-19 09:00N 30°06' W 093°19'0 0.0
2017-Sep-19 08:30N 30°06' W 093°19'0 0.0
2017-Sep-19 08:01N 30°06' W 093°19'0 0.0
2017-Sep-19 07:30N 30°06' W 093°19'0 0.0
2017-Sep-19 07:00N 30°06' W 093°19'0 0.0
2017-Sep-19 06:30N 30°06' W 093°19'0 0.0
2017-Sep-19 06:00N 30°06' W 093°19'0 0.0
2017-Sep-19 05:30N 30°06' W 093°19'0 0.0
2017-Sep-19 05:00N 30°06' W 093°19'0 0.0
2017-Sep-19 04:30N 30°06' W 093°19'0 0.0
2017-Sep-19 04:00N 30°06' W 093°19'0 0.0
2017-Sep-19 03:30N 30°06' W 093°19'0 0.0
2017-Sep-19 03:00N 30°06' W 093°19'0 0.0
2017-Sep-19 02:30N 30°06' W 093°19'0 0.0
2017-Sep-19 02:00N 30°06' W 093°19'0 0.0
2017-Sep-19 01:30N 30°06' W 093°19'0 0.0
2017-Sep-19 01:00N 30°06' W 093°19'0 0.0
2017-Sep-19 00:30N 30°06' W 093°19'0 0.0
2017-Sep-19 00:00N 30°06' W 093°19'0 0.0
2017-Sep-18 23:30N 30°06' W 093°19'0 0.0
2017-Sep-18 23:00N 30°06' W 093°19'0 0.0
2017-Sep-18 22:30N 30°06' W 093°19'1 2.5
2017-Sep-18 22:00N 30°05' W 093°20'3 5.7
2017-Sep-18 21:30N 30°04' W 093°23'3 6.8
2017-Sep-18 21:00N 30°04' W 093°27'3 6.9
2017-Sep-18 20:30N 30°04' W 093°31'3 6.8
2017-Sep-18 20:00N 30°04' W 093°35'3 6.7
2017-Sep-18 19:30N 30°04' W 093°38'3 5.7
2017-Sep-18 19:00N 30°03' W 093°42'20 0.5
2017-Sep-17 03:29N 29°49' W 093°58'0 0.0
2017-Sep-17 03:00N 29°49' W 093°58'  
Track history (hours):
 
Tides and Currents Weather Stations Pressure Air Temp Water Temp Dewpoint Dewpoint Depression Visibility Wind Speed Wind Dir Waves Ship Positions

Jody Ann

Owner: Dean Equipment Inc., Harvey, LA. More information available from US FCC via Universal Licensing System and Coast Guard Vessel Documentation Center.

Last reported at 2017-Sep-21 21:28 UTC. Time now 2017-Dec-11 01:56 UTC.
Position N 29°34' W 090°33'.
Warning: this ship's position is months out of date.

Length 17 m; draft 2.3 m.

Type: Towing. MMSI: 367789370.

Date/timePositionNaut miles runAvg speedWind from/ knotsBaromVisibWave heightAir tempDewpointWater temp
2017-Sep-21 21:28N 29°34' W 090°33'2 5.2
2017-Sep-21 21:00N 29°35' W 090°36'2 4.9
2017-Sep-21 20:30N 29°35' W 090°39'2 5.0
2017-Sep-21 20:00N 29°36' W 090°41'1 2.8
2017-Sep-21 19:30N 29°36' W 090°43'2 3.4
2017-Sep-21 19:00N 29°34' W 090°43'2 3.6
2017-Sep-21 18:30N 29°33' W 090°45'0 0.1
2017-Sep-21 18:00N 29°33' W 090°45'1 1.5
2017-Sep-21 17:30N 29°33' W 090°46'3 5.1
2017-Sep-21 17:00N 29°32' W 090°48'3 5.5
2017-Sep-21 16:30N 29°32' W 090°52'3 5.1
2017-Sep-21 15:50N 29°33' W 090°55'3 5.4
2017-Sep-21 15:12N 29°36' W 090°58'57 1.4
2017-Sep-19 23:34N 29°49' W 092°02'0 6.4
2017-Sep-19 23:30N 29°49' W 092°02'3 6.5
2017-Sep-19 23:00N 29°48' W 092°06'3 6.5
2017-Sep-19 22:31N 29°47' W 092°09'3 5.9
2017-Sep-19 22:01N 29°47' W 092°13'4 6.6
2017-Sep-19 21:23N 29°49' W 092°17'4 6.3
2017-Sep-19 20:49N 29°51' W 092°21'41 6.0
2017-Sep-19 14:04N 29°56' W 093°07'1 6.0
2017-Sep-19 13:50N 29°56' W 093°09'2 5.8
2017-Sep-19 13:31N 29°57' W 093°11'3 6.2
2017-Sep-19 13:00N 29°60' W 093°13'3 5.8
2017-Sep-19 12:31N 30°02' W 093°15'3 5.9
2017-Sep-19 12:01N 30°05' W 093°17'2 3.5
2017-Sep-19 11:30N 30°06' W 093°18'1 1.4
2017-Sep-19 11:00N 30°06' W 093°19'0 0.0
2017-Sep-19 10:31N 30°06' W 093°19'0 0.0
2017-Sep-19 10:00N 30°06' W 093°19'0 0.0
2017-Sep-19 09:30N 30°06' W 093°19'0 0.0
2017-Sep-19 09:00N 30°06' W 093°19'0 0.0
2017-Sep-19 08:30N 30°06' W 093°19'0 0.0
2017-Sep-19 08:01N 30°06' W 093°19'0 0.0
2017-Sep-19 07:30N 30°06' W 093°19'0 0.0
2017-Sep-19 07:00N 30°06' W 093°19'0 0.0
2017-Sep-19 06:30N 30°06' W 093°19'0 0.0
2017-Sep-19 06:00N 30°06' W 093°19'0 0.0
2017-Sep-19 05:30N 30°06' W 093°19'0 0.0
2017-Sep-19 05:00N 30°06' W 093°19'0 0.0
2017-Sep-19 04:30N 30°06' W 093°19'0 0.0
2017-Sep-19 04:00N 30°06' W 093°19'0 0.0
2017-Sep-19 03:30N 30°06' W 093°19'0 0.0
2017-Sep-19 03:00N 30°06' W 093°19'0 0.0
2017-Sep-19 02:30N 30°06' W 093°19'0 0.0
2017-Sep-19 02:00N 30°06' W 093°19'0 0.0
2017-Sep-19 01:30N 30°06' W 093°19'0 0.0
2017-Sep-19 01:00N 30°06' W 093°19'0 0.0
2017-Sep-19 00:30N 30°06' W 093°19'0 0.0
2017-Sep-19 00:00N 30°06' W 093°19'0 0.0
2017-Sep-18 23:30N 30°06' W 093°19'0 0.0
2017-Sep-18 23:00N 30°06' W 093°19'0 0.0
2017-Sep-18 22:30N 30°06' W 093°19'1 2.5
2017-Sep-18 22:00N 30°05' W 093°20'3 5.7
2017-Sep-18 21:30N 30°04' W 093°23'3 6.8
2017-Sep-18 21:00N 30°04' W 093°27'3 6.9
2017-Sep-18 20:30N 30°04' W 093°31'3 6.8
2017-Sep-18 20:00N 30°04' W 093°35'3 6.7
2017-Sep-18 19:30N 30°04' W 093°38'3 5.7
2017-Sep-18 19:00N 30°03' W 093°42'20 0.5
2017-Sep-17 03:29N 29°49' W 093°58'0 0.0
2017-Sep-17 03:00N 29°49' W 093°58'  

Dump ship's entire track history